Observations for HUMBERSIDE, United Kingdom (EGNJ)

EGNJ 130850Z 12008KT 9999 SCT035 04/01 Q1020
EGNJ 130820Z 13008KT 9999 SCT035 04/M00 Q1020   
EGNJ 130750Z 13008KT 9999 SCT035 04/00 Q1019
EGNJ 130720Z 12010KT 9999 SCT035 05/01 Q1019
EGNJ 130650Z 11011KT 9999 SCT035 04/01 Q1019
EGNJ 130620Z 11009KT 9999 SCT035 04/01 Q1019
EGNJ 130550Z 11010KT 9999 BKN037 05/01 Q1019
EGNJ 130520Z AUTO 13009KT 9999 SCT034/// OVC039/// 05/01 Q1019  
EGNJ 130450Z AUTO 13008KT 9999 SCT030/// BKN035/// OVC040/// 05/01 Q1019
EGNJ 130420Z AUTO 13008KT 9999 OVC035/// 04/00 Q1019
EGNJ 130350Z AUTO 13009KT 9999 BKN031/// OVC036/// 05/00 Q1019  
EGNJ 130320Z AUTO 12010KT 9999 OVC030/// 05/00 Q1019
EGNJ 130250Z AUTO 13011KT 9999 OVC029/// 05/00 Q1020
EGNJ 130220Z AUTO 13014KT 9999 FEW032/// OVC038/// 05/01 Q1020  
EGNJ 130150Z AUTO 12010KT 9999 OVC039/// 05/02 Q1020
EGNJ 130120Z AUTO 12010KT 9999 FEW032/// OVC037/// 05/02 Q1020  
EGNJ 130050Z AUTO 13011KT 9999 OVC034/// 06/02 Q1020
EGNJ 130020Z AUTO 13012KT 9999 BKN032/// OVC038/// 06/01 Q1020  
EGNJ 122350Z AUTO 13011KT 9999 FEW034/// OVC040/// 05/03 Q1020  
EGNJ 122320Z AUTO 12010KT 9999 OVC038/// 05/03 Q1020
EGNJ 122250Z AUTO 12009KT 9999 OVC042/// 04/02 Q1020
EGNJ 122220Z AUTO 12007KT 9999 OVC041/// 04/01 Q1020
EGNJ 122150Z AUTO 12008KT 9999 BKN037/// 03/01 Q1021
EGNJ 122120Z 11005KT 9999 FEW038 02/M00 Q1021   
EGNJ 122050Z 14005KT 9999 FEW038 03/M00 Q1021   
EGNJ 122020Z 11006KT 9999 SCT038 03/00 Q1021
EGNJ 121950Z 10008KT 9999 SCT038 02/M00 Q1021   
EGNJ 121920Z 14008KT 9999 FEW043 02/M01 Q1021   
EGNJ 121850Z 12006KT 9999 FEW041 01/M01 Q1022   
EGNJ 121820Z 13006KT CAVOK 02/M01 Q1022 
EGNJ 121750Z 13007KT CAVOK 03/M00 Q1022 
EGNJ 121720Z 13008KT CAVOK 03/M00 Q1022 
EGNJ 121650Z 13007KT CAVOK 03/00 Q1022  
EGNJ 121620Z 14006KT CAVOK 04/00 Q1022  
EGNJ 121550Z 14008KT 9999 FEW030 05/01 Q1022
EGNJ 121450Z 14011KT 9999 FEW030 06/01 Q1022
EGNJ 121420Z 15009KT 9999 FEW025 07/02 Q1022
EGNJ 121350Z 15009KT 9999 FEW028 07/02 Q1023
EGNJ 121320Z 14011KT 9999 FEW028 07/02 Q1023
EGNJ 121250Z 16009KT 9999 FEW028 07/02 Q1023
EGNJ 121220Z 15011KT 9999 SCT049 07/03 Q1023
EGNJ 121150Z 16008KT 9999 SCT049 07/03 Q1023
EGNJ 121120Z 14008KT 9999 FEW042 07/03 Q1023
EGNJ 121050Z 15008KT 9999 FEW042 07/03 Q1024
EGNJ 121020Z 14009KT 9999 BKN048 06/03 Q1024
EGNJ 120950Z 13009KT 9999 BKN048 06/04 Q1024
EGNJ 120920Z 14007KT 9999 BKN048 06/03 Q1024
EGNJ 120850Z 13008KT 9999 FEW027 SCT036 BKN045 05/03 Q1024  
EGNJ 120820Z 13007KT 9999 FEW027 SCT036 BKN045 05/03 Q1023